Terminal Aerodrome Forecast
Issued by NWS Lake Charles, LA

Home | Current Version | Previous Version | Text Only | Print | Product List | Glossary On
Versions: 1 2 3 4 5 6 7 8 9 10 11 12 13 14 15 16 17 18 19 20 21 22 23 24 25 26
000
FTUS44 KLCH 271305 AAE
TAFLFT
TAF AMD
KLFT 271305Z 2713/2812 10013G20KT 3SM SHRA SCT003 OVC015
      TEMPO 2713/2716 VRB17G28KT 2SM TSRA BR OVC003CB
     FM271600 29005KT P6SM TSRA OVC018CB
     FM271900 16010KT P6SM OVC018
     FM280200 14002KT P6SM SCT050=

USA.gov is the U.S. government's official web portal to all federal, state and local government web resources and services.